sensor_id;sensor_type;location;lat;lon;timestamp;P1;durP1;ratioP1;P2;durP2;ratioP2
67904;SDS011;54709;43.614;1.576;2024-01-25T00:01:58;25.17;;;14.75;;
67904;SDS011;54709;43.614;1.576;2024-01-25T00:04:23;24.75;;;15.77;;
67904;SDS011;54709;43.614;1.576;2024-01-25T00:06:48;27.98;;;16.27;;
67904;SDS011;54709;43.614;1.576;2024-01-25T00:09:14;27.05;;;15.55;;
67904;SDS011;54709;43.614;1.576;2024-01-25T00:11:39;26.75;;;15.55;;
67904;SDS011;54709;43.614;1.576;2024-01-25T00:14:04;25.38;;;15.50;;
67904;SDS011;54709;43.614;1.576;2024-01-25T00:16:30;20.27;;;12.82;;
67904;SDS011;54709;43.614;1.576;2024-01-25T00:18:55;20.45;;;13.77;;
67904;SDS011;54709;43.614;1.576;2024-01-25T00:21:20;20.17;;;12.57;;
67904;SDS011;54709;43.614;1.576;2024-01-25T00:23:46;18.23;;;12.25;;
67904;SDS011;54709;43.614;1.576;2024-01-25T00:26:12;21.45;;;13.40;;
67904;SDS011;54709;43.614;1.576;2024-01-25T00:28:37;22.92;;;12.90;;
67904;SDS011;54709;43.614;1.576;2024-01-25T00:31:03;20.90;;;14.32;;
67904;SDS011;54709;43.614;1.576;2024-01-25T00:33:28;18.48;;;11.68;;
67904;SDS011;54709;43.614;1.576;2024-01-25T00:35:54;21.02;;;13.80;;
67904;SDS011;54709;43.614;1.576;2024-01-25T00:38:19;20.08;;;12.68;;
67904;SDS011;54709;43.614;1.576;2024-01-25T00:40:45;20.05;;;14.00;;
67904;SDS011;54709;43.614;1.576;2024-01-25T00:43:10;43.80;;;23.88;;
67904;SDS011;54709;43.614;1.576;2024-01-25T00:45:36;29.20;;;16.65;;
67904;SDS011;54709;43.614;1.576;2024-01-25T00:48:02;25.50;;;13.27;;
67904;SDS011;54709;43.614;1.576;2024-01-25T00:50:27;61.22;;;26.13;;
67904;SDS011;54709;43.614;1.576;2024-01-25T00:52:53;38.38;;;13.18;;
67904;SDS011;54709;43.614;1.576;2024-01-25T00:55:19;26.70;;;14.98;;
67904;SDS011;54709;43.614;1.576;2024-01-25T00:57:44;61.35;;;13.50;;
67904;SDS011;54709;43.614;1.576;2024-01-25T01:00:10;81.07;;;15.00;;
67904;SDS011;54709;43.614;1.576;2024-01-25T01:02:38;83.53;;;14.02;;
67904;SDS011;54709;43.614;1.576;2024-01-25T01:05:05;36.30;;;13.40;;
67904;SDS011;54709;43.614;1.576;2024-01-25T01:07:31;59.92;;;12.65;;
67904;SDS011;54709;43.614;1.576;2024-01-25T01:09:56;35.15;;;13.25;;
67904;SDS011;54709;43.614;1.576;2024-01-25T01:12:22;41.50;;;19.60;;
67904;SDS011;54709;43.614;1.576;2024-01-25T01:14:47;39.20;;;22.40;;
67904;SDS011;54709;43.614;1.576;2024-01-25T01:17:13;37.13;;;19.02;;
67904;SDS011;54709;43.614;1.576;2024-01-25T01:19:38;32.25;;;14.88;;
67904;SDS011;54709;43.614;1.576;2024-01-25T01:22:04;18.33;;;9.98;;
67904;SDS011;54709;43.614;1.576;2024-01-25T01:24:29;16.17;;;9.02;;
67904;SDS011;54709;43.614;1.576;2024-01-25T01:26:54;36.80;;;9.80;;
67904;SDS011;54709;43.614;1.576;2024-01-25T01:29:20;42.25;;;8.40;;
67904;SDS011;54709;43.614;1.576;2024-01-25T01:31:45;44.05;;;8.02;;
67904;SDS011;54709;43.614;1.576;2024-01-25T01:34:10;35.92;;;8.60;;
67904;SDS011;54709;43.614;1.576;2024-01-25T01:36:37;34.70;;;9.77;;
67904;SDS011;54709;43.614;1.576;2024-01-25T01:39:03;46.13;;;11.07;;
67904;SDS011;54709;43.614;1.576;2024-01-25T01:41:28;40.63;;;11.05;;
67904;SDS011;54709;43.614;1.576;2024-01-25T01:43:54;39.65;;;10.90;;
67904;SDS011;54709;43.614;1.576;2024-01-25T01:49:02;36.15;;;11.30;;
67904;SDS011;54709;43.614;1.576;2024-01-25T01:51:28;31.90;;;11.43;;
67904;SDS011;54709;43.614;1.576;2024-01-25T01:53:55;33.58;;;11.00;;
67904;SDS011;54709;43.614;1.576;2024-01-25T01:56:22;36.88;;;10.57;;
67904;SDS011;54709;43.614;1.576;2024-01-25T01:58:48;36.85;;;9.98;;
67904;SDS011;54709;43.614;1.576;2024-01-25T02:01:15;22.42;;;11.10;;
67904;SDS011;54709;43.614;1.576;2024-01-25T02:03:40;26.70;;;10.43;;
67904;SDS011;54709;43.614;1.576;2024-01-25T02:06:06;26.48;;;9.77;;
67904;SDS011;54709;43.614;1.576;2024-01-25T02:08:31;25.58;;;10.10;;
67904;SDS011;54709;43.614;1.576;2024-01-25T02:10:57;49.65;;;10.38;;
67904;SDS011;54709;43.614;1.576;2024-01-25T02:13:22;42.42;;;11.27;;
67904;SDS011;54709;43.614;1.576;2024-01-25T02:15:48;22.77;;;10.02;;
67904;SDS011;54709;43.614;1.576;2024-01-25T02:18:13;31.20;;;10.30;;
67904;SDS011;54709;43.614;1.576;2024-01-25T02:20:39;16.23;;;10.05;;
67904;SDS011;54709;43.614;1.576;2024-01-25T02:23:05;30.33;;;11.02;;
67904;SDS011;54709;43.614;1.576;2024-01-25T02:25:30;28.08;;;10.98;;
67904;SDS011;54709;43.614;1.576;2024-01-25T02:27:56;23.05;;;11.00;;
67904;SDS011;54709;43.614;1.576;2024-01-25T02:30:21;40.17;;;11.63;;
67904;SDS011;54709;43.614;1.576;2024-01-25T02:32:46;24.17;;;10.65;;
67904;SDS011;54709;43.614;1.576;2024-01-25T02:35:12;48.38;;;12.23;;
67904;SDS011;54709;43.614;1.576;2024-01-25T02:37:37;30.10;;;12.40;;
67904;SDS011;54709;43.614;1.576;2024-01-25T02:40:03;25.02;;;13.00;;
67904;SDS011;54709;43.614;1.576;2024-01-25T02:42:29;65.93;;;14.68;;
67904;SDS011;54709;43.614;1.576;2024-01-25T02:44:54;24.35;;;13.80;;
67904;SDS011;54709;43.614;1.576;2024-01-25T02:47:20;54.83;;;14.20;;
67904;SDS011;54709;43.614;1.576;2024-01-25T02:49:45;53.20;;;14.38;;
67904;SDS011;54709;43.614;1.576;2024-01-25T02:52:11;28.27;;;13.60;;
67904;SDS011;54709;43.614;1.576;2024-01-25T02:54:36;76.57;;;15.15;;
67904;SDS011;54709;43.614;1.576;2024-01-25T02:57:02;29.63;;;14.85;;
67904;SDS011;54709;43.614;1.576;2024-01-25T02:59:27;44.45;;;14.50;;
67904;SDS011;54709;43.614;1.576;2024-01-25T03:01:53;64.07;;;14.70;;
67904;SDS011;54709;43.614;1.576;2024-01-25T03:04:19;53.50;;;13.63;;
67904;SDS011;54709;43.614;1.576;2024-01-25T03:06:44;44.40;;;12.82;;
67904;SDS011;54709;43.614;1.576;2024-01-25T03:09:10;73.82;;;14.38;;
67904;SDS011;54709;43.614;1.576;2024-01-25T03:11:35;31.20;;;12.75;;
67904;SDS011;54709;43.614;1.576;2024-01-25T03:14:00;27.08;;;13.35;;
67904;SDS011;54709;43.614;1.576;2024-01-25T03:16:26;45.53;;;11.82;;
67904;SDS011;54709;43.614;1.576;2024-01-25T03:18:51;39.03;;;11.65;;
67904;SDS011;54709;43.614;1.576;2024-01-25T03:21:17;34.15;;;12.23;;
67904;SDS011;54709;43.614;1.576;2024-01-25T03:23:42;31.17;;;12.25;;
67904;SDS011;54709;43.614;1.576;2024-01-25T03:26:07;22.77;;;11.93;;
67904;SDS011;54709;43.614;1.576;2024-01-25T03:28:34;17.38;;;11.07;;
67904;SDS011;54709;43.614;1.576;2024-01-25T03:31:00;33.40;;;12.13;;
67904;SDS011;54709;43.614;1.576;2024-01-25T03:33:26;81.57;;;12.48;;
67904;SDS011;54709;43.614;1.576;2024-01-25T03:35:53;62.03;;;11.00;;
67904;SDS011;54709;43.614;1.576;2024-01-25T03:38:18;83.97;;;11.77;;
67904;SDS011;54709;43.614;1.576;2024-01-25T03:40:44;149.98;;;12.05;;
67904;SDS011;54709;43.614;1.576;2024-01-25T03:43:09;24.42;;;11.38;;
67904;SDS011;54709;43.614;1.576;2024-01-25T03:45:34;24.73;;;10.60;;
67904;SDS011;54709;43.614;1.576;2024-01-25T03:48:00;128.73;;;10.80;;
67904;SDS011;54709;43.614;1.576;2024-01-25T03:50:26;135.43;;;10.35;;
67904;SDS011;54709;43.614;1.576;2024-01-25T03:52:51;32.22;;;9.60;;
67904;SDS011;54709;43.614;1.576;2024-01-25T03:55:17;145.20;;;11.30;;
67904;SDS011;54709;43.614;1.576;2024-01-25T03:57:42;62.25;;;11.13;;
67904;SDS011;54709;43.614;1.576;2024-01-25T04:00:08;118.95;;;10.85;;
67904;SDS011;54709;43.614;1.576;2024-01-25T04:02:34;98.78;;;10.18;;
67904;SDS011;54709;43.614;1.576;2024-01-25T04:04:59;26.63;;;9.73;;
67904;SDS011;54709;43.614;1.576;2024-01-25T04:07:25;58.50;;;9.88;;
67904;SDS011;54709;43.614;1.576;2024-01-25T04:09:50;110.20;;;10.38;;
67904;SDS011;54709;43.614;1.576;2024-01-25T04:12:15;167.45;;;10.82;;
67904;SDS011;54709;43.614;1.576;2024-01-25T04:14:41;252.15;;;10.70;;
67904;SDS011;54709;43.614;1.576;2024-01-25T04:17:06;141.75;;;9.80;;
67904;SDS011;54709;43.614;1.576;2024-01-25T04:19:32;155.63;;;9.95;;
67904;SDS011;54709;43.614;1.576;2024-01-25T04:21:57;69.50;;;8.27;;
67904;SDS011;54709;43.614;1.576;2024-01-25T04:24:22;25.05;;;8.30;;
67904;SDS011;54709;43.614;1.576;2024-01-25T04:26:48;44.58;;;8.07;;
67904;SDS011;54709;43.614;1.576;2024-01-25T04:29:13;273.52;;;10.05;;
67904;SDS011;54709;43.614;1.576;2024-01-25T04:31:42;151.95;;;8.85;;
67904;SDS011;54709;43.614;1.576;2024-01-25T04:36:37;68.60;;;8.35;;
67904;SDS011;54709;43.614;1.576;2024-01-25T04:39:02;24.65;;;7.60;;
67904;SDS011;54709;43.614;1.576;2024-01-25T04:41:28;54.15;;;7.65;;
67904;SDS011;54709;43.614;1.576;2024-01-25T04:43:53;61.47;;;7.72;;
67904;SDS011;54709;43.614;1.576;2024-01-25T04:46:18;23.88;;;7.25;;
67904;SDS011;54709;43.614;1.576;2024-01-25T04:48:44;77.55;;;8.02;;
67904;SDS011;54709;43.614;1.576;2024-01-25T04:51:14;21.10;;;7.82;;
67904;SDS011;54709;43.614;1.576;2024-01-25T04:53:41;17.58;;;7.57;;
67904;SDS011;54709;43.614;1.576;2024-01-25T04:56:06;28.02;;;6.97;;
67904;SDS011;54709;43.614;1.576;2024-01-25T04:58:31;101.57;;;6.60;;
67904;SDS011;54709;43.614;1.576;2024-01-25T05:00:57;91.13;;;6.85;;
67904;SDS011;54709;43.614;1.576;2024-01-25T05:03:22;76.28;;;6.53;;
67904;SDS011;54709;43.614;1.576;2024-01-25T05:05:47;41.78;;;6.47;;
67904;SDS011;54709;43.614;1.576;2024-01-25T05:08:13;26.25;;;6.90;;
67904;SDS011;54709;43.614;1.576;2024-01-25T05:10:38;33.40;;;6.35;;
67904;SDS011;54709;43.614;1.576;2024-01-25T05:13:03;67.88;;;5.80;;
67904;SDS011;54709;43.614;1.576;2024-01-25T05:15:30;54.60;;;6.00;;
67904;SDS011;54709;43.614;1.576;2024-01-25T05:17:55;9.10;;;5.90;;
67904;SDS011;54709;43.614;1.576;2024-01-25T05:20:21;15.95;;;5.70;;
67904;SDS011;54709;43.614;1.576;2024-01-25T05:22:46;108.90;;;6.40;;
67904;SDS011;54709;43.614;1.576;2024-01-25T05:25:12;26.38;;;7.03;;
67904;SDS011;54709;43.614;1.576;2024-01-25T05:27:37;45.47;;;6.82;;
67904;SDS011;54709;43.614;1.576;2024-01-25T05:30:03;13.85;;;6.10;;
67904;SDS011;54709;43.614;1.576;2024-01-25T05:32:29;12.27;;;5.53;;
67904;SDS011;54709;43.614;1.576;2024-01-25T05:34:55;28.15;;;6.13;;
67904;SDS011;54709;43.614;1.576;2024-01-25T05:37:20;31.20;;;5.80;;
67904;SDS011;54709;43.614;1.576;2024-01-25T05:39:45;32.85;;;6.07;;
67904;SDS011;54709;43.614;1.576;2024-01-25T05:42:11;9.23;;;5.30;;
67904;SDS011;54709;43.614;1.576;2024-01-25T05:44:36;21.02;;;5.35;;
67904;SDS011;54709;43.614;1.576;2024-01-25T05:47:02;15.15;;;5.88;;
67904;SDS011;54709;43.614;1.576;2024-01-25T05:49:27;30.33;;;5.95;;
67904;SDS011;54709;43.614;1.576;2024-01-25T05:51:52;12.27;;;5.38;;
67904;SDS011;54709;43.614;1.576;2024-01-25T05:54:18;9.43;;;5.60;;
67904;SDS011;54709;43.614;1.576;2024-01-25T05:56:43;10.32;;;5.60;;
67904;SDS011;54709;43.614;1.576;2024-01-25T05:59:08;62.47;;;5.30;;
67904;SDS011;54709;43.614;1.576;2024-01-25T06:01:34;32.75;;;5.88;;
67904;SDS011;54709;43.614;1.576;2024-01-25T06:03:59;16.73;;;5.80;;
67904;SDS011;54709;43.614;1.576;2024-01-25T06:06:25;23.50;;;5.47;;
67904;SDS011;54709;43.614;1.576;2024-01-25T06:08:50;29.83;;;5.75;;
67904;SDS011;54709;43.614;1.576;2024-01-25T06:11:15;9.40;;;5.88;;
67904;SDS011;54709;43.614;1.576;2024-01-25T06:13:41;33.42;;;5.60;;
67904;SDS011;54709;43.614;1.576;2024-01-25T06:16:06;63.92;;;5.88;;
67904;SDS011;54709;43.614;1.576;2024-01-25T06:18:31;30.77;;;5.90;;
67904;SDS011;54709;43.614;1.576;2024-01-25T06:20:57;29.00;;;5.97;;
67904;SDS011;54709;43.614;1.576;2024-01-25T06:23:22;8.52;;;5.28;;
67904;SDS011;54709;43.614;1.576;2024-01-25T06:25:48;9.82;;;5.18;;
67904;SDS011;54709;43.614;1.576;2024-01-25T06:28:13;21.65;;;4.90;;
67904;SDS011;54709;43.614;1.576;2024-01-25T06:30:38;12.55;;;4.38;;
67904;SDS011;54709;43.614;1.576;2024-01-25T06:33:04;23.88;;;4.15;;
67904;SDS011;54709;43.614;1.576;2024-01-25T06:35:29;23.13;;;4.78;;
67904;SDS011;54709;43.614;1.576;2024-01-25T06:37:55;35.05;;;4.80;;
67904;SDS011;54709;43.614;1.576;2024-01-25T06:40:21;18.40;;;4.20;;
67904;SDS011;54709;43.614;1.576;2024-01-25T06:42:46;25.30;;;3.80;;
67904;SDS011;54709;43.614;1.576;2024-01-25T06:45:11;25.52;;;4.00;;
67904;SDS011;54709;43.614;1.576;2024-01-25T06:47:37;37.17;;;4.22;;
67904;SDS011;54709;43.614;1.576;2024-01-25T06:50:02;39.95;;;3.58;;
67904;SDS011;54709;43.614;1.576;2024-01-25T06:52:28;19.73;;;3.58;;
67904;SDS011;54709;43.614;1.576;2024-01-25T06:54:53;10.35;;;3.60;;
67904;SDS011;54709;43.614;1.576;2024-01-25T06:57:19;13.02;;;3.80;;
67904;SDS011;54709;43.614;1.576;2024-01-25T06:59:45;15.60;;;3.20;;
67904;SDS011;54709;43.614;1.576;2024-01-25T07:02:10;10.30;;;3.38;;
67904;SDS011;54709;43.614;1.576;2024-01-25T07:04:36;7.80;;;3.20;;
67904;SDS011;54709;43.614;1.576;2024-01-25T07:07:03;9.38;;;3.50;;
67904;SDS011;54709;43.614;1.576;2024-01-25T07:09:28;10.73;;;3.20;;
67904;SDS011;54709;43.614;1.576;2024-01-25T07:11:54;17.45;;;2.80;;
67904;SDS011;54709;43.614;1.576;2024-01-25T07:14:19;40.47;;;2.80;;
67904;SDS011;54709;43.614;1.576;2024-01-25T07:16:45;3.40;;;2.47;;
67904;SDS011;54709;43.614;1.576;2024-01-25T07:19:10;15.57;;;2.47;;
67904;SDS011;54709;43.614;1.576;2024-01-25T07:21:35;5.18;;;2.45;;
67904;SDS011;54709;43.614;1.576;2024-01-25T07:24:02;34.15;;;2.78;;
67904;SDS011;54709;43.614;1.576;2024-01-25T07:26:29;46.22;;;3.05;;
67904;SDS011;54709;43.614;1.576;2024-01-25T07:28:55;54.42;;;3.30;;
67904;SDS011;54709;43.614;1.576;2024-01-25T07:31:24;34.90;;;3.15;;
67904;SDS011;54709;43.614;1.576;2024-01-25T07:33:50;56.63;;;3.40;;
67904;SDS011;54709;43.614;1.576;2024-01-25T07:36:16;48.83;;;3.03;;
67904;SDS011;54709;43.614;1.576;2024-01-25T07:38:42;35.47;;;3.13;;
67904;SDS011;54709;43.614;1.576;2024-01-25T07:41:08;34.35;;;3.63;;
67904;SDS011;54709;43.614;1.576;2024-01-25T07:43:33;35.17;;;3.80;;
67904;SDS011;54709;43.614;1.576;2024-01-25T07:45:58;50.78;;;3.33;;
67904;SDS011;54709;43.614;1.576;2024-01-25T07:48:24;76.55;;;3.88;;
67904;SDS011;54709;43.614;1.576;2024-01-25T07:50:49;86.00;;;3.78;;
67904;SDS011;54709;43.614;1.576;2024-01-25T07:53:14;151.98;;;4.75;;
67904;SDS011;54709;43.614;1.576;2024-01-25T07:55:41;157.50;;;5.00;;
67904;SDS011;54709;43.614;1.576;2024-01-25T07:58:06;115.63;;;4.72;;
67904;SDS011;54709;43.614;1.576;2024-01-25T08:00:32;82.38;;;4.93;;
67904;SDS011;54709;43.614;1.576;2024-01-25T08:02:57;106.38;;;5.00;;
67904;SDS011;54709;43.614;1.576;2024-01-25T08:05:22;123.38;;;4.88;;
67904;SDS011;54709;43.614;1.576;2024-01-25T08:07:48;94.78;;;4.57;;
67904;SDS011;54709;43.614;1.576;2024-01-25T08:10:14;35.22;;;4.22;;
67904;SDS011;54709;43.614;1.576;2024-01-25T08:12:40;21.73;;;4.40;;
67904;SDS011;54709;43.614;1.576;2024-01-25T08:15:09;37.22;;;4.38;;
67904;SDS011;54709;43.614;1.576;2024-01-25T08:17:34;72.05;;;4.15;;
67904;SDS011;54709;43.614;1.576;2024-01-25T08:20:01;19.70;;;3.75;;
67904;SDS011;54709;43.614;1.576;2024-01-25T08:22:27;36.15;;;3.97;;
67904;SDS011;54709;43.614;1.576;2024-01-25T08:24:53;69.88;;;3.60;;
67904;SDS011;54709;43.614;1.576;2024-01-25T08:27:18;42.95;;;3.92;;
67904;SDS011;54709;43.614;1.576;2024-01-25T08:29:44;43.08;;;4.05;;
67904;SDS011;54709;43.614;1.576;2024-01-25T08:32:10;31.52;;;3.92;;
67904;SDS011;54709;43.614;1.576;2024-01-25T08:34:35;71.85;;;4.00;;
67904;SDS011;54709;43.614;1.576;2024-01-25T08:37:01;47.03;;;4.15;;
67904;SDS011;54709;43.614;1.576;2024-01-25T08:39:26;53.67;;;4.85;;
67904;SDS011;54709;43.614;1.576;2024-01-25T08:41:51;68.93;;;3.75;;
67904;SDS011;54709;43.614;1.576;2024-01-25T08:44:17;58.88;;;4.88;;
67904;SDS011;54709;43.614;1.576;2024-01-25T08:46:42;64.32;;;4.70;;
67904;SDS011;54709;43.614;1.576;2024-01-25T08:49:08;76.18;;;5.32;;
67904;SDS011;54709;43.614;1.576;2024-01-25T08:51:35;80.70;;;5.38;;
67904;SDS011;54709;43.614;1.576;2024-01-25T08:54:00;44.63;;;5.25;;
67904;SDS011;54709;43.614;1.576;2024-01-25T08:56:26;71.95;;;5.40;;
67904;SDS011;54709;43.614;1.576;2024-01-25T08:58:51;69.05;;;5.97;;
67904;SDS011;54709;43.614;1.576;2024-01-25T09:01:17;78.63;;;6.28;;
67904;SDS011;54709;43.614;1.576;2024-01-25T09:03:42;72.70;;;7.28;;
67904;SDS011;54709;43.614;1.576;2024-01-25T09:06:08;65.13;;;8.00;;
67904;SDS011;54709;43.614;1.576;2024-01-25T09:08:34;57.72;;;7.40;;
67904;SDS011;54709;43.614;1.576;2024-01-25T09:10:59;93.45;;;6.80;;
67904;SDS011;54709;43.614;1.576;2024-01-25T09:13:25;62.13;;;6.78;;
67904;SDS011;54709;43.614;1.576;2024-01-25T09:15:50;125.55;;;6.00;;
67904;SDS011;54709;43.614;1.576;2024-01-25T09:18:15;49.20;;;6.50;;
67904;SDS011;54709;43.614;1.576;2024-01-25T09:20:41;77.40;;;6.43;;
67904;SDS011;54709;43.614;1.576;2024-01-25T09:23:09;123.32;;;5.95;;
67904;SDS011;54709;43.614;1.576;2024-01-25T09:25:35;51.67;;;5.13;;
67904;SDS011;54709;43.614;1.576;2024-01-25T09:28:00;99.38;;;6.07;;
67904;SDS011;54709;43.614;1.576;2024-01-25T09:30:26;162.68;;;6.60;;
67904;SDS011;54709;43.614;1.576;2024-01-25T09:32:52;92.82;;;6.25;;
67904;SDS011;54709;43.614;1.576;2024-01-25T09:35:17;76.10;;;5.97;;
67904;SDS011;54709;43.614;1.576;2024-01-25T09:37:42;60.90;;;6.20;;
67904;SDS011;54709;43.614;1.576;2024-01-25T09:40:08;110.60;;;7.32;;
67904;SDS011;54709;43.614;1.576;2024-01-25T09:42:35;130.57;;;8.77;;
67904;SDS011;54709;43.614;1.576;2024-01-25T09:45:01;74.93;;;7.75;;
67904;SDS011;54709;43.614;1.576;2024-01-25T09:47:30;73.63;;;7.30;;
67904;SDS011;54709;43.614;1.576;2024-01-25T09:49:55;58.55;;;8.00;;
67904;SDS011;54709;43.614;1.576;2024-01-25T09:52:20;48.88;;;8.38;;
67904;SDS011;54709;43.614;1.576;2024-01-25T09:54:50;77.07;;;8.00;;
67904;SDS011;54709;43.614;1.576;2024-01-25T09:57:19;52.92;;;7.63;;
67904;SDS011;54709;43.614;1.576;2024-01-25T09:59:48;55.08;;;7.15;;
67904;SDS011;54709;43.614;1.576;2024-01-25T10:02:15;58.80;;;7.57;;
67904;SDS011;54709;43.614;1.576;2024-01-25T10:04:41;85.53;;;7.45;;
67904;SDS011;54709;43.614;1.576;2024-01-25T10:07:06;58.67;;;9.50;;
67904;SDS011;54709;43.614;1.576;2024-01-25T10:09:38;118.10;;;10.27;;
67904;SDS011;54709;43.614;1.576;2024-01-25T10:12:05;49.08;;;10.10;;
67904;SDS011;54709;43.614;1.576;2024-01-25T10:14:31;77.70;;;7.30;;
67904;SDS011;54709;43.614;1.576;2024-01-25T10:16:57;35.83;;;6.95;;
67904;SDS011;54709;43.614;1.576;2024-01-25T10:19:23;156.02;;;8.98;;
67904;SDS011;54709;43.614;1.576;2024-01-25T10:21:49;51.50;;;7.07;;
67904;SDS011;54709;43.614;1.576;2024-01-25T10:24:14;71.57;;;11.88;;
67904;SDS011;54709;43.614;1.576;2024-01-25T10:26:40;24.23;;;13.10;;
67904;SDS011;54709;43.614;1.576;2024-01-25T10:29:06;53.20;;;16.63;;
67904;SDS011;54709;43.614;1.576;2024-01-25T10:31:33;23.98;;;16.10;;
67904;SDS011;54709;43.614;1.576;2024-01-25T10:34:03;23.02;;;9.77;;
67904;SDS011;54709;43.614;1.576;2024-01-25T10:36:30;233.93;;;11.27;;
67904;SDS011;54709;43.614;1.576;2024-01-25T10:38:56;13.98;;;7.28;;
67904;SDS011;54709;43.614;1.576;2024-01-25T10:41:23;50.00;;;6.90;;
67904;SDS011;54709;43.614;1.576;2024-01-25T10:43:48;85.00;;;6.75;;
67904;SDS011;54709;43.614;1.576;2024-01-25T10:46:14;43.95;;;7.00;;
67904;SDS011;54709;43.614;1.576;2024-01-25T10:48:39;18.83;;;6.72;;
67904;SDS011;54709;43.614;1.576;2024-01-25T10:51:05;36.00;;;6.78;;
67904;SDS011;54709;43.614;1.576;2024-01-25T10:53:32;13.02;;;5.85;;
67904;SDS011;54709;43.614;1.576;2024-01-25T10:55:58;14.60;;;5.65;;
67904;SDS011;54709;43.614;1.576;2024-01-25T10:58:23;24.65;;;6.43;;
67904;SDS011;54709;43.614;1.576;2024-01-25T11:00:52;11.30;;;7.25;;
67904;SDS011;54709;43.614;1.576;2024-01-25T11:03:20;15.13;;;8.43;;
67904;SDS011;54709;43.614;1.576;2024-01-25T11:05:46;9.40;;;6.90;;
67904;SDS011;54709;43.614;1.576;2024-01-25T11:08:18;8.00;;;6.85;;
67904;SDS011;54709;43.614;1.576;2024-01-25T11:10:46;16.10;;;7.65;;
67904;SDS011;54709;43.614;1.576;2024-01-25T11:13:17;12.88;;;7.40;;
67904;SDS011;54709;43.614;1.576;2024-01-25T11:15:48;16.17;;;8.48;;
67904;SDS011;54709;43.614;1.576;2024-01-25T11:18:14;7.93;;;7.00;;
67904;SDS011;54709;43.614;1.576;2024-01-25T11:20:39;7.57;;;5.95;;
67904;SDS011;54709;43.614;1.576;2024-01-25T11:23:06;8.30;;;6.55;;
67904;SDS011;54709;43.614;1.576;2024-01-25T11:25:35;9.50;;;6.57;;
67904;SDS011;54709;43.614;1.576;2024-01-25T11:28:02;6.90;;;5.82;;
67904;SDS011;54709;43.614;1.576;2024-01-25T11:30:29;6.75;;;6.05;;
67904;SDS011;54709;43.614;1.576;2024-01-25T11:32:57;6.32;;;5.72;;
67904;SDS011;54709;43.614;1.576;2024-01-25T11:35:22;6.70;;;6.00;;
67904;SDS011;54709;43.614;1.576;2024-01-25T11:37:48;18.55;;;15.70;;
67904;SDS011;54709;43.614;1.576;2024-01-25T11:40:15;8.15;;;7.25;;
67904;SDS011;54709;43.614;1.576;2024-01-25T11:42:42;6.78;;;5.68;;
67904;SDS011;54709;43.614;1.576;2024-01-25T11:45:09;6.70;;;5.72;;
67904;SDS011;54709;43.614;1.576;2024-01-25T11:47:36;10.45;;;8.38;;
67904;SDS011;54709;43.614;1.576;2024-01-25T11:50:02;10.55;;;9.55;;
67904;SDS011;54709;43.614;1.576;2024-01-25T11:52:28;6.25;;;5.65;;
67904;SDS011;54709;43.614;1.576;2024-01-25T11:54:53;7.18;;;6.28;;
67904;SDS011;54709;43.614;1.576;2024-01-25T11:57:19;7.97;;;6.30;;
67904;SDS011;54709;43.614;1.576;2024-01-25T11:59:45;6.25;;;4.70;;
67904;SDS011;54709;43.614;1.576;2024-01-25T12:02:11;9.80;;;7.55;;
67904;SDS011;54709;43.614;1.576;2024-01-25T12:04:41;5.63;;;4.53;;
67904;SDS011;54709;43.614;1.576;2024-01-25T12:07:07;4.60;;;4.20;;
67904;SDS011;54709;43.614;1.576;2024-01-25T12:09:32;5.70;;;4.40;;
67904;SDS011;54709;43.614;1.576;2024-01-25T12:11:59;4.88;;;4.30;;
67904;SDS011;54709;43.614;1.576;2024-01-25T12:14:25;3.60;;;3.30;;
67904;SDS011;54709;43.614;1.576;2024-01-25T12:16:50;4.25;;;2.83;;
67904;SDS011;54709;43.614;1.576;2024-01-25T12:19:16;2.80;;;2.50;;
67904;SDS011;54709;43.614;1.576;2024-01-25T12:21:44;4.43;;;3.58;;
67904;SDS011;54709;43.614;1.576;2024-01-25T12:24:10;2.47;;;2.25;;
67904;SDS011;54709;43.614;1.576;2024-01-25T12:26:35;2.72;;;2.05;;
67904;SDS011;54709;43.614;1.576;2024-01-25T12:29:01;2.95;;;2.60;;
67904;SDS011;54709;43.614;1.576;2024-01-25T12:31:28;3.03;;;2.72;;
67904;SDS011;54709;43.614;1.576;2024-01-25T12:33:53;3.13;;;2.83;;
67904;SDS011;54709;43.614;1.576;2024-01-25T12:36:18;2.70;;;2.50;;
67904;SDS011;54709;43.614;1.576;2024-01-25T12:38:44;4.53;;;3.80;;
67904;SDS011;54709;43.614;1.576;2024-01-25T12:41:09;4.45;;;2.53;;
67904;SDS011;54709;43.614;1.576;2024-01-25T12:43:34;4.75;;;3.80;;
67904;SDS011;54709;43.614;1.576;2024-01-25T12:46:00;3.25;;;2.88;;
67904;SDS011;54709;43.614;1.576;2024-01-25T12:48:25;4.43;;;3.50;;
67904;SDS011;54709;43.614;1.576;2024-01-25T12:50:50;5.20;;;3.30;;
67904;SDS011;54709;43.614;1.576;2024-01-25T12:53:16;14.00;;;9.15;;
67904;SDS011;54709;43.614;1.576;2024-01-25T12:55:42;4.60;;;3.65;;
67904;SDS011;54709;43.614;1.576;2024-01-25T12:58:07;4.30;;;3.00;;
67904;SDS011;54709;43.614;1.576;2024-01-25T13:00:33;3.28;;;2.75;;
67904;SDS011;54709;43.614;1.576;2024-01-25T13:02:58;4.78;;;2.95;;
67904;SDS011;54709;43.614;1.576;2024-01-25T13:05:26;3.95;;;3.17;;
67904;SDS011;54709;43.614;1.576;2024-01-25T13:07:52;4.55;;;2.97;;
67904;SDS011;54709;43.614;1.576;2024-01-25T13:10:17;4.75;;;3.17;;
67904;SDS011;54709;43.614;1.576;2024-01-25T13:12:43;3.63;;;2.75;;
67904;SDS011;54709;43.614;1.576;2024-01-25T13:15:08;4.53;;;3.28;;
67904;SDS011;54709;43.614;1.576;2024-01-25T13:17:34;6.57;;;3.88;;
67904;SDS011;54709;43.614;1.576;2024-01-25T13:19:59;2.78;;;2.58;;
67904;SDS011;54709;43.614;1.576;2024-01-25T13:22:25;2.65;;;2.15;;
67904;SDS011;54709;43.614;1.576;2024-01-25T13:24:50;1.90;;;1.80;;
67904;SDS011;54709;43.614;1.576;2024-01-25T13:27:16;2.17;;;1.98;;
67904;SDS011;54709;43.614;1.576;2024-01-25T13:29:41;1.98;;;1.83;;
67904;SDS011;54709;43.614;1.576;2024-01-25T13:32:07;2.08;;;1.70;;
67904;SDS011;54709;43.614;1.576;2024-01-25T13:34:33;2.00;;;1.80;;
67904;SDS011;54709;43.614;1.576;2024-01-25T13:36:58;2.20;;;1.73;;
67904;SDS011;54709;43.614;1.576;2024-01-25T13:39:24;2.03;;;1.83;;
67904;SDS011;54709;43.614;1.576;2024-01-25T13:41:50;2.15;;;1.70;;
67904;SDS011;54709;43.614;1.576;2024-01-25T13:44:16;2.60;;;1.98;;
67904;SDS011;54709;43.614;1.576;2024-01-25T13:46:41;1.85;;;1.67;;
67904;SDS011;54709;43.614;1.576;2024-01-25T13:49:06;2.53;;;1.70;;
67904;SDS011;54709;43.614;1.576;2024-01-25T13:51:32;3.25;;;1.45;;
67904;SDS011;54709;43.614;1.576;2024-01-25T13:53:57;2.30;;;1.63;;
67904;SDS011;54709;43.614;1.576;2024-01-25T13:56:22;1.60;;;1.50;;
67904;SDS011;54709;43.614;1.576;2024-01-25T13:58:48;2.00;;;1.60;;
67904;SDS011;54709;43.614;1.576;2024-01-25T14:01:13;1.70;;;1.60;;
67904;SDS011;54709;43.614;1.576;2024-01-25T14:03:39;2.08;;;1.75;;
67904;SDS011;54709;43.614;1.576;2024-01-25T14:06:04;3.42;;;1.70;;
67904;SDS011;54709;43.614;1.576;2024-01-25T14:08:30;2.88;;;1.85;;
67904;SDS011;54709;43.614;1.576;2024-01-25T14:10:57;4.90;;;2.13;;
67904;SDS011;54709;43.614;1.576;2024-01-25T14:13:22;4.18;;;2.60;;
67904;SDS011;54709;43.614;1.576;2024-01-25T14:15:47;4.05;;;2.78;;
67904;SDS011;54709;43.614;1.576;2024-01-25T14:18:13;5.63;;;2.67;;
67904;SDS011;54709;43.614;1.576;2024-01-25T14:20:38;4.07;;;2.33;;
67904;SDS011;54709;43.614;1.576;2024-01-25T14:23:04;5.13;;;2.53;;
67904;SDS011;54709;43.614;1.576;2024-01-25T14:25:29;4.22;;;2.60;;
67904;SDS011;54709;43.614;1.576;2024-01-25T14:27:55;3.45;;;1.98;;
67904;SDS011;54709;43.614;1.576;2024-01-25T14:30:20;1.63;;;1.42;;